Time;durP1;ratioP1;P1;durP2;ratioP2;P2;SDS_P1;SDS_P2;PMS_P1;PMS_P2;Temp;Humidity;BMP_temperature;BMP_pressure;BME280_temperature;BME280_humidity;BME280_pressure;Samples;Min_cycle;Max_cycle;Signal;HPM_P1;HPM_P2
2023/11/27 00:00:12;;;;;;;10.70;6.90;;;;;;;-3.08;100.00;98730.42;436112;1254;139792;-70
2023/11/27 00:10:34;;;;;;;10.90;7.50;;;;;;;-3.13;100.00;98727.98;435691;1251;141065;-75
2023/11/27 00:20:41;;;;;;;13.70;7.40;;;;;;;-3.19;100.00;98719.90;436039;1250;140113;-74
2023/11/27 00:30:47;;;;;;;9.80;7.50;;;;;;;-3.30;100.00;98719.45;435780;1249;139578;-71
2023/11/27 00:40:53;;;;;;;15.90;9.10;;;;;;;-3.43;100.00;98719.02;435273;1250;139884;-68
2023/11/27 00:50:59;;;;;;;12.20;9.20;;;;;;;-3.52;100.00;98718.35;435990;1250;140085;-69
2023/11/27 01:01:07;;;;;;;13.00;9.60;;;;;;;-3.62;100.00;98710.00;438456;1250;139720;-75
2023/11/27 01:11:13;;;;;;;12.40;9.70;;;;;;;-3.72;100.00;98704.91;435270;1250;139542;-72
2023/11/27 01:21:19;;;;;;;15.80;9.00;;;;;;;-3.78;100.00;98701.95;435205;1251;140586;-76
2023/11/27 01:31:26;;;;;;;14.80;9.90;;;;;;;-3.79;100.00;98697.67;437558;1251;139632;-73
2023/11/27 01:41:32;;;;;;;15.50;8.90;;;;;;;-3.76;100.00;98693.69;435532;1254;139792;-70
2023/11/27 01:51:39;;;;;;;16.70;10.20;;;;;;;-3.78;100.00;98693.73;435342;1250;139816;-72
2023/11/27 02:01:47;;;;;;;13.20;8.40;;;;;;;-3.82;100.00;98689.02;435789;1251;140028;-76
2023/11/27 02:11:53;;;;;;;12.00;9.10;;;;;;;-3.81;100.00;98670.36;437186;1253;140427;-71
2023/11/27 02:22:00;;;;;;;13.30;10.20;;;;;;;-3.78;100.00;98665.49;435888;1249;140550;-74
2023/11/27 02:32:07;;;;;;;15.20;9.50;;;;;;;-3.73;100.00;98660.80;435449;1251;139779;-72
2023/11/27 02:42:14;;;;;;;11.60;8.80;;;;;;;-3.71;100.00;98655.62;436155;1252;139841;-69
2023/11/27 02:52:20;;;;;;;13.70;9.10;;;;;;;-3.71;100.00;98660.23;435437;1253;141715;-73
2023/11/27 03:02:27;;;;;;;12.50;9.50;;;;;;;-3.70;100.00;98659.02;435886;1251;140290;-69
2023/11/27 03:12:33;;;;;;;13.60;8.80;;;;;;;-3.70;100.00;98654.39;437597;1250;140275;-74
2023/11/27 03:22:40;;;;;;;12.80;8.50;;;;;;;-3.70;100.00;98652.52;436236;1251;140513;-72
2023/11/27 03:32:46;;;;;;;11.10;9.10;;;;;;;-3.71;100.00;98646.71;437026;1249;140531;-76
2023/11/27 03:42:53;;;;;;;12.90;9.00;;;;;;;-3.69;100.00;98639.17;436387;1249;140264;-68
2023/11/27 03:52:59;;;;;;;14.00;10.70;;;;;;;-3.68;100.00;98636.73;436379;1250;140224;-77
2023/11/27 04:03:06;;;;;;;11.00;9.50;;;;;;;-3.67;100.00;98633.28;435734;1250;140738;-64
2023/11/27 04:13:12;;;;;;;11.20;9.10;;;;;;;-3.71;100.00;98632.86;435596;1254;139562;-64
2023/11/27 04:23:19;;;;;;;12.90;9.50;;;;;;;-3.76;100.00;98633.99;435678;1254;140287;-64
2023/11/27 04:33:25;;;;;;;14.60;10.70;;;;;;;-3.82;100.00;98627.11;435409;1251;140397;-64
2023/11/27 04:43:31;;;;;;;13.70;10.30;;;;;;;-3.85;100.00;98622.89;435721;1253;139930;-63
2023/11/27 04:53:38;;;;;;;12.20;10.10;;;;;;;-3.86;100.00;98616.77;436334;1253;142490;-63
2023/11/27 05:03:44;;;;;;;13.20;10.80;;;;;;;-3.86;100.00;98617.96;435255;1251;140162;-64
2023/11/27 05:13:51;;;;;;;13.20;10.70;;;;;;;-3.82;100.00;98622.48;435755;1250;140611;-64
2023/11/27 05:23:57;;;;;;;16.80;12.20;;;;;;;-3.79;100.00;98621.23;435166;1249;141058;-64
2023/11/27 05:34:04;;;;;;;16.90;12.70;;;;;;;-3.85;100.00;98611.45;435671;1254;140300;-64
2023/11/27 05:44:10;;;;;;;17.60;11.50;;;;;;;-3.86;100.00;98604.28;435737;1250;140194;-63
2023/11/27 05:54:20;;;;;;;16.90;11.60;;;;;;;-3.85;100.00;98611.80;435522;1250;140552;-63
2023/11/27 06:04:26;;;;;;;17.50;13.20;;;;;;;-3.81;100.00;98619.06;435397;1255;140901;-63
2023/11/27 06:14:33;;;;;;;21.90;16.40;;;;;;;-3.81;100.00;98620.08;435794;1251;140329;-64
2023/11/27 06:24:39;;;;;;;21.60;15.20;;;;;;;-3.74;100.00;98619.58;435366;1253;140435;-64
2023/11/27 06:34:45;;;;;;;22.60;15.40;;;;;;;-3.75;100.00;98623.38;435865;1250;141342;-63
2023/11/27 06:44:52;;;;;;;23.50;17.00;;;;;;;-3.75;100.00;98629.36;435468;1250;139888;-64
2023/11/27 06:54:58;;;;;;;23.10;17.60;;;;;;;-3.70;100.00;98629.10;436101;1255;139734;-64
2023/11/27 07:05:06;;;;;;;29.20;17.20;;;;;;;-3.66;100.00;98635.48;435624;1254;141348;-64
2023/11/27 07:15:13;;;;;;;19.20;15.10;;;;;;;-3.52;100.00;98637.77;435475;1254;140772;-63
2023/11/27 07:25:19;;;;;;;23.60;14.60;;;;;;;-3.45;100.00;98629.21;435573;1255;139664;-68
2023/11/27 07:35:25;;;;;;;15.30;12.50;;;;;;;-3.37;100.00;98632.47;438684;1253;140384;-69
2023/11/27 07:45:32;;;;;;;18.30;11.90;;;;;;;-3.28;100.00;98634.99;439117;1249;141254;-70
2023/11/27 07:55:40;;;;;;;12.40;9.60;;;;;;;-3.14;100.00;98619.29;437631;1254;140621;-79
2023/11/27 08:05:46;;;;;;;12.40;9.40;;;;;;;-2.95;100.00;98621.39;439933;1251;139905;-74
2023/11/27 08:15:53;;;;;;;14.30;10.60;;;;;;;-2.69;100.00;98626.09;436482;1253;139828;-71
2023/11/27 08:26:01;;;;;;;12.10;9.30;;;;;;;-2.35;100.00;98614.90;439766;1253;140672;-71
2023/11/27 08:36:11;;;;;;;9.10;7.70;;;;;;;-1.86;100.00;98614.58;437717;1254;139701;-68
2023/11/27 08:46:18;;;;;;;9.30;7.10;;;;;;;-1.43;100.00;98611.23;437690;1253;140146;-66
2023/11/27 08:56:26;;;;;;;8.20;7.30;;;;;;;0.16;100.00;98608.62;440043;1250;140422;-68
2023/11/27 09:06:32;;;;;;;9.20;7.60;;;;;;;1.03;100.00;98621.36;435579;1254;139103;-69
2023/11/27 09:16:38;;;;;;;9.70;7.50;;;;;;;2.06;99.99;98622.77;438409;1253;139464;-70
2023/11/27 09:26:44;;;;;;;9.20;7.80;;;;;;;2.83;100.00;98616.45;439143;1253;139222;-70
2023/11/27 09:36:52;;;;;;;11.30;8.80;;;;;;;3.09;98.48;98611.75;438167;1253;141306;-72
2023/11/27 09:47:12;;;;;;;14.50;8.40;;;;;;;2.64;97.25;98607.34;436739;1251;139014;-70
2023/11/27 09:57:19;;;;;;;10.40;8.00;;;;;;;2.46;96.85;98605.91;437945;1253;139620;-70
2023/11/27 10:07:26;;;;;;;12.10;8.50;;;;;;;1.75;94.74;98590.61;439590;1253;139605;-74
2023/11/27 10:17:33;;;;;;;11.40;9.50;;;;;;;1.39;95.47;98581.98;436694;1251;141036;-70
2023/11/27 10:27:40;;;;;;;12.40;9.80;;;;;;;1.03;95.07;98576.05;435685;1253;139131;-71
2023/11/27 10:37:49;;;;;;;12.00;10.30;;;;;;;0.99;95.38;98572.77;435775;1253;139893;-71
2023/11/27 10:47:56;;;;;;;17.10;10.60;;;;;;;1.16;96.13;98552.77;436085;1253;139943;-71
2023/11/27 10:58:04;;;;;;;15.40;12.10;;;;;;;1.32;95.41;98550.89;436891;1253;139556;-70
2023/11/27 11:08:09;;;;;;;;;;;;;;;1.19;94.84;98543.52;435972;1253;139256;-68
2023/11/27 11:18:23;;;;;;;12.10;10.80;;;;;;;1.03;94.28;98538.80;436042;1253;126050;-78
2023/11/27 11:28:36;;;;;;;20.70;11.70;;;;;;;0.31;93.62;98531.86;436847;1253;139387;-75
2023/11/27 11:38:48;;;;;;;12.30;9.60;;;;;;;0.08;94.59;98521.88;436150;1253;139664;-75
2023/11/27 11:49:02;;;;;;;17.20;13.10;;;;;;;-0.15;94.67;98510.71;436072;1253;140197;-74
2023/11/27 11:59:17;;;;;;;13.70;11.30;;;;;;;-0.50;94.70;98505.11;436360;1252;186798;-81
2023/11/27 12:09:25;;;;;;;13.90;10.40;;;;;;;-0.81;94.96;98499.83;436036;1257;140315;-67
2023/11/27 12:19:32;;;;;;;14.90;11.90;;;;;;;-0.94;95.44;98488.27;435612;1254;139771;-72
2023/11/27 12:29:38;;;;;;;15.00;11.20;;;;;;;-0.62;96.23;98491.11;439269;1254;139698;-71
2023/11/27 12:39:52;;;;;;;12.80;9.90;;;;;;;-0.14;96.37;98485.91;437032;1253;141077;-74
2023/11/27 12:49:59;;;;;;;16.70;11.80;;;;;;;0.08;95.51;98487.15;437607;1251;141564;-66
2023/11/27 13:00:04;;;;;;;;;;;;;;;-0.31;94.63;98476.90;436276;1253;139725;-64
2023/11/27 13:10:11;;;;;;;14.50;12.40;;;;;;;-0.88;94.15;98479.45;435927;1254;127005;-72
2023/11/27 13:20:21;;;;;;;12.40;10.30;;;;;;;-1.38;94.61;98482.33;439105;1253;139944;-67
2023/11/27 13:30:28;;;;;;;19.10;10.90;;;;;;;-1.69;94.97;98478.35;436668;1251;140371;-74
2023/11/27 13:40:35;;;;;;;15.90;12.30;;;;;;;-1.84;95.71;98476.77;437395;1254;140847;-80
2023/11/27 13:50:43;;;;;;;14.00;10.60;;;;;;;-2.07;95.69;98473.52;438821;1254;140567;-63
2023/11/27 14:00:50;;;;;;;18.30;14.00;;;;;;;-2.32;96.16;98460.52;435579;1253;139640;-64
2023/11/27 14:11:09;;;;;;;25.10;19.00;;;;;;;-2.33;97.03;98459.20;436188;1254;139597;-65
2023/11/27 14:32:02;;;;;;;25.10;18.70;;;;;;;-2.38;97.88;98443.41;435843;1253;139524;-68
2023/11/27 14:42:09;;;;;;;24.00;19.50;;;;;;;-2.51;98.11;98425.09;435693;1251;139708;-69
2023/11/27 14:52:18;;;;;;;24.60;19.50;;;;;;;-2.65;98.41;98413.52;436122;1253;140933;-64
2023/11/27 15:02:28;;;;;;;31.80;22.30;;;;;;;-2.76;99.10;98406.63;436101;1254;139967;-65
2023/11/27 15:12:41;;;;;;;30.40;22.70;;;;;;;-2.83;99.32;98382.30;435704;1254;140481;-68
2023/11/27 15:22:47;;;;;;;32.10;23.70;;;;;;;-2.84;99.85;98375.50;436329;1253;140889;-73
2023/11/27 15:32:55;;;;;;;35.50;27.10;;;;;;;-2.83;99.90;98371.54;436466;1251;139903;-71
2023/11/27 15:43:02;;;;;;;37.90;27.60;;;;;;;-2.83;99.94;98355.61;437156;1251;140377;-64
2023/11/27 15:53:12;;;;;;;43.20;31.20;;;;;;;-2.84;100.00;98347.73;436085;1254;140398;-71
2023/11/27 16:03:19;;;;;;;50.50;35.80;;;;;;;-2.84;100.00;98341.77;436677;1251;139997;-70
2023/11/27 16:13:30;;;;;;;41.70;31.40;;;;;;;-2.85;100.00;98337.67;435986;1254;140592;-69
2023/11/27 16:23:36;;;;;;;54.10;36.50;;;;;;;-2.87;100.00;98328.66;435574;1253;140791;-67
2023/11/27 16:33:43;;;;;;;38.40;27.80;;;;;;;-2.91;100.00;98328.28;436168;1253;140456;-72
2023/11/27 16:43:49;;;;;;;58.60;44.60;;;;;;;-2.98;100.00;98327.93;436087;1251;140206;-65
2023/11/27 16:53:57;;;;;;;49.10;33.00;;;;;;;-2.98;100.00;98322.14;435644;1250;140778;-64
2023/11/27 17:04:05;;;;;;;72.50;43.80;;;;;;;-3.00;100.00;98315.49;452338;1249;140224;-65
2023/11/27 17:14:12;;;;;;;47.20;29.40;;;;;;;-3.00;100.00;98318.41;437982;1249;139724;-66
2023/11/27 17:24:18;;;;;;;74.70;38.80;;;;;;;-3.03;100.00;98310.98;436278;1250;141445;-65
2023/11/27 17:34:24;;;;;;;47.30;32.20;;;;;;;-3.13;100.00;98307.65;435963;1250;140767;-65
2023/11/27 17:44:30;;;;;;;49.40;35.30;;;;;;;-3.25;100.00;98307.14;435990;1254;140699;-65
2023/11/27 17:54:38;;;;;;;38.10;28.30;;;;;;;-3.29;100.00;98303.84;435540;1253;140424;-65
2023/11/27 18:04:44;;;;;;;46.40;31.70;;;;;;;-3.32;100.00;98292.63;436817;1250;141537;-65
2023/11/27 18:14:50;;;;;;;68.70;41.00;;;;;;;-3.42;100.00;98284.66;436292;1251;140099;-65
2023/11/27 18:24:57;;;;;;;47.80;33.10;;;;;;;-3.47;100.00;98275.07;436238;1254;141745;-66
2023/11/27 18:35:03;;;;;;;49.40;32.30;;;;;;;-3.51;100.00;98258.25;435836;1250;140583;-65
2023/11/27 18:45:11;;;;;;;67.50;44.50;;;;;;;-3.51;100.00;98246.61;436505;1250;141330;-65
2023/11/27 18:55:18;;;;;;;60.20;43.80;;;;;;;-3.48;100.00;98245.67;435737;1253;140077;-66
2023/11/27 19:05:25;;;;;;;79.80;47.70;;;;;;;-3.43;100.00;98232.02;441474;1249;140654;-65
2023/11/27 19:15:32;;;;;;;54.70;34.60;;;;;;;-3.42;100.00;98207.67;436284;1253;140749;-66
2023/11/27 19:25:39;;;;;;;45.40;31.00;;;;;;;-3.47;100.00;98205.79;436264;1251;141145;-66
2023/11/27 19:35:45;;;;;;;43.40;29.70;;;;;;;-3.49;100.00;98200.88;435521;1254;140981;-66
2023/11/27 19:45:52;;;;;;;52.50;36.00;;;;;;;-3.52;100.00;98181.62;435801;1251;140031;-66
2023/11/27 19:55:59;;;;;;;45.00;34.60;;;;;;;-3.55;100.00;98168.03;436556;1253;140240;-66
2023/11/27 20:06:07;;;;;;;56.50;40.10;;;;;;;-3.63;100.00;98154.76;435641;1253;141111;-66
2023/11/27 20:16:13;;;;;;;55.40;42.90;;;;;;;-3.75;100.00;98143.45;436037;1253;140111;-65
2023/11/27 20:26:22;;;;;;;60.70;43.00;;;;;;;-3.92;100.00;98123.95;435802;1253;140023;-66
2023/11/27 20:36:29;;;;;;;59.60;41.90;;;;;;;-4.18;100.00;98131.33;435714;1251;140738;-65
2023/11/27 20:46:35;;;;;;;57.60;44.30;;;;;;;-4.38;100.00;98122.13;435642;1251;139954;-66
2023/11/27 20:56:41;;;;;;;61.10;46.30;;;;;;;-4.50;100.00;98122.42;435822;1250;140843;-67
2023/11/27 21:06:49;;;;;;;68.90;46.00;;;;;;;-4.63;100.00;98116.78;435537;1248;140579;-65
2023/11/27 21:16:55;;;;;;;66.00;48.50;;;;;;;-4.83;100.00;98123.44;435659;1254;140830;-66
2023/11/27 21:27:05;;;;;;;70.30;52.70;;;;;;;-5.11;100.00;98117.30;435644;1250;142721;-67
2023/11/27 21:37:13;;;;;;;65.10;47.90;;;;;;;-5.41;100.00;98111.17;435763;1251;141381;-66
2023/11/27 21:47:20;;;;;;;67.80;51.60;;;;;;;-5.66;100.00;98108.32;435916;1250;140475;-66
2023/11/27 21:57:26;;;;;;;98.00;71.30;;;;;;;-5.84;100.00;98091.48;435771;1253;140348;-65
2023/11/27 22:07:32;;;;;;;97.20;76.10;;;;;;;-5.92;100.00;98066.42;435565;1251;140188;-66
2023/11/27 22:17:39;;;;;;;92.20;68.30;;;;;;;-5.94;100.00;98039.72;437305;1249;140219;-66
2023/11/27 22:27:45;;;;;;;122.90;85.50;;;;;;;-6.13;100.00;98028.40;435735;1250;140300;-66
2023/11/27 22:37:52;;;;;;;118.90;80.60;;;;;;;-6.26;100.00;98022.55;436886;1249;140961;-66
2023/11/27 22:47:58;;;;;;;97.80;71.50;;;;;;;-6.33;100.00;98011.44;438689;1249;140520;-66
2023/11/27 22:58:04;;;;;;;82.90;59.10;;;;;;;-6.35;100.00;98000.92;437696;1250;140099;-67
2023/11/27 23:08:10;;;;;;;77.20;53.30;;;;;;;-6.34;100.00;97994.27;435275;1253;140443;-65
2023/11/27 23:18:17;;;;;;;73.00;52.60;;;;;;;-6.30;100.00;97992.46;435517;1253;140533;-67
2023/11/27 23:28:23;;;;;;;74.40;49.60;;;;;;;-6.33;100.00;97988.80;436187;1253;140295;-67
2023/11/27 23:38:29;;;;;;;73.20;51.50;;;;;;;-6.32;100.00;97983.68;435662;1251;140157;-66
2023/11/27 23:48:35;;;;;;;67.30;49.30;;;;;;;-6.24;100.00;97975.80;435468;1254;140356;-67
2023/11/27 23:58:42;;;;;;;70.60;49.50;;;;;;;-6.14;100.00;97957.04;436216;1252;178638;-67
